Sapello, NM

7:04 PM MDT on March 29, 2015 (GMT -0600)
Taos Municipal | | Change Station
CLOSE
Current Station
Airport
Location: Taos,
Elevation: 7090 ft
Nearby Weather Stations

Elev 7090 ft 36.46 °N, 105.67 °W | Updated 9 minutes ago

Mostly Cloudy
Mostly Cloudy
61 °F
Feels Like 61 °F
N
18
Wind Variable Wind from ESE
Gusts 22 mph

Today
High -- | Low -- °F
--% Chance of Precip.
Yesterday
High -- | Low -- °F
Precip. -- in
6:51 AM 7:20 PM
Waxing Gibbous, 75% visible
Pressure 30.26 in
Visibility 10.0 miles
Clouds Overcast 11000 ft
Dew Point 25 °F
Humidity 25%
Rainfall 0.00 in
Snow Depth Not available.
UV 0 out of 12
Pollen 11.00 out of 12
Air Quality Not available.
Flu Activity Not available.
METAR KSKX 300055Z AUTO 12016G19KT 10SM OVC110 16/M04 A3026 RMK AO1 TSB18E38

More Conditions Fewer Conditions

Pressure 30.26 in
Visibility 10.0 miles
Clouds Overcast 11000 ft
Dew Point 25 °F
Humidity 25%
Rainfall 0.00 in
Snow Depth Not available.
UV 0 out of 12
Pollen 11.00 out of 12
Air Quality Not available.
Flu Activity Not available.
METAR KSKX 300055Z AUTO 12016G19KT 10SM OVC110 16/M04 A3026 RMK AO1 TSB18E38

More Conditions Fewer Conditions

Nowcast | as of 5:53 PM MDT on March 29, 2015

Through mid evening...isolated showers and a few thunderstorms will continue over the northern mountains...upper Rio Grande Valley and northeast Highlands. The activity will move to the east southeast at speeds around 15 mph. Little or no precipitation will reach the ground...however...stronger storms may produce erratic wind gusts near 40 mph and a few lightning strikes. Through 8 PM... most of the showers and storms will favor locations north of Las Vegas to the Colorado border...including along Interstate 25. Most of this activity will diminish around or shortly after sunset.

×

10-Day Weather Forecast

Almanac

Astronomy

Mar. 29, 2015 Rise Set
Actual Time
Civil Twilight
Nautical Twilight
Astronomical Twilight
Moon
Length of Visible Light
Length of Day
Tomorrow will be .
, % of the Moon is Illuminated

Today's Extremes

State Highs State Lows

Community

WunderPhotos

Upload Photos

1,809,392 photos uploaded!

WunderBlogs® & News

Nearby

Air Quality

  Air Quality AQ Index Pollutant
Not available.

Snow Depth

Station Depth Elevation

Earthquake Activity

City Distance Mag. Time & Date
Minimum magnitude displayed is 2.5.

Coastal Water Temperatures

Place Temperature

Stations

Nearby Weather Stations

Station Location Temp. Windchill Dew Point Humidity Wind Precip. Elev Updated Type